createdAt,value
2023-03-02T00:01:49.794Z,-0.21
2023-03-02T00:04:46.305Z,-0.16
2023-03-02T00:07:36.143Z,-0.19
2023-03-02T00:10:22.776Z,-0.20
2023-03-02T00:13:09.539Z,-0.22
2023-03-02T00:16:02.366Z,-0.22
2023-03-02T00:18:49.129Z,-0.07
2023-03-02T00:21:35.837Z,-0.13
2023-03-02T00:24:22.634Z,-0.23
2023-03-02T00:27:09.373Z,-0.23
2023-03-02T00:29:56.203Z,0.00
2023-03-02T00:32:44.435Z,-0.14
2023-03-02T00:35:31.328Z,-0.26
2023-03-02T00:38:18.025Z,-0.32
2023-03-02T00:41:05.319Z,-0.36
2023-03-02T00:43:52.466Z,-0.54
2023-03-02T00:46:39.391Z,-0.32
2023-03-02T00:49:28.259Z,-0.29
2023-03-02T00:52:14.729Z,-0.25
2023-03-02T00:55:01.575Z,-0.31
2023-03-02T00:57:55.087Z,-0.35
2023-03-02T01:00:46.707Z,-0.42
2023-03-02T01:03:33.757Z,-0.78
2023-03-02T01:06:23.153Z,-0.41
2023-03-02T01:09:10.784Z,-0.37
2023-03-02T01:11:57.273Z,-0.37
2023-03-02T01:14:47.613Z,-0.35
2023-03-02T01:17:35.062Z,-0.44
2023-03-02T01:20:22.100Z,-0.50
2023-03-02T01:23:09.897Z,-0.55
2023-03-02T01:25:56.805Z,-0.59
2023-03-02T01:28:43.698Z,-0.56
2023-03-02T01:31:30.778Z,-0.58
2023-03-02T01:34:17.471Z,-0.59
2023-03-02T01:37:04.157Z,-0.63
2023-03-02T01:39:52.495Z,-0.64
2023-03-02T01:42:46.736Z,-0.51
2023-03-02T01:45:47.078Z,-0.77
2023-03-02T01:48:43.913Z,-0.59
2023-03-02T01:51:35.719Z,-0.65
2023-03-02T01:54:24.571Z,-0.71
2023-03-02T01:57:24.395Z,-0.79
2023-03-02T02:00:15.040Z,-0.73
2023-03-02T02:03:09.814Z,-0.78
2023-03-02T02:06:05.479Z,-0.81
2023-03-02T02:08:55.479Z,-0.84
2023-03-02T02:11:43.889Z,-0.81
2023-03-02T02:14:32.105Z,-0.63
2023-03-02T02:17:20.258Z,-0.66
2023-03-02T02:20:19.643Z,-0.73
2023-03-02T02:23:20.471Z,-0.73
2023-03-02T02:26:18.604Z,-1.44
2023-03-02T02:29:12.269Z,-0.91
2023-03-02T02:32:06.856Z,-0.97
2023-03-02T02:34:58.898Z,-0.94
2023-03-02T02:37:50.057Z,-0.96
2023-03-02T02:40:46.647Z,-0.98
2023-03-02T02:43:37.109Z,-0.97
2023-03-02T02:46:24.725Z,-0.93
2023-03-02T02:49:22.579Z,-0.78
2023-03-02T02:52:16.193Z,-0.79
2023-03-02T02:55:03.381Z,-0.89
2023-03-02T02:57:51.370Z,-0.87
2023-03-02T03:00:39.482Z,-1.01
2023-03-02T03:03:32.629Z,-0.86
2023-03-02T03:06:26.943Z,-1.04
2023-03-02T03:09:13.979Z,-1.04
2023-03-02T03:12:12.206Z,-1.07
2023-03-02T03:15:00.107Z,-1.70
2023-03-02T03:17:56.166Z,-1.12
2023-03-02T03:20:45.998Z,-1.11
2023-03-02T03:23:33.271Z,-1.15
2023-03-02T03:26:23.673Z,-0.85
2023-03-02T03:29:10.642Z,-0.98
2023-03-02T03:31:59.961Z,-1.40
2023-03-02T03:34:49.175Z,-1.05
2023-03-02T03:37:43.528Z,-1.10
2023-03-02T03:40:34.354Z,-1.07
2023-03-02T03:43:22.496Z,-1.04
2023-03-02T03:46:12.854Z,-0.99
2023-03-02T03:48:59.796Z,-1.08
2023-03-02T03:51:47.996Z,-1.16
2023-03-02T03:54:34.525Z,-1.26
2023-03-02T03:57:21.344Z,-1.29
2023-03-02T04:00:13.555Z,-1.37
2023-03-02T04:03:09.089Z,-1.38
2023-03-02T04:05:57.029Z,-1.39
2023-03-02T04:08:45.664Z,-1.39
2023-03-02T04:11:32.829Z,-1.35
2023-03-02T04:14:19.899Z,-1.23
2023-03-02T04:17:08.241Z,-1.00
2023-03-02T04:19:59.526Z,-0.85
2023-03-02T04:22:48.337Z,-0.80
2023-03-02T04:25:36.656Z,-0.54
2023-03-02T04:28:31.754Z,-0.46
2023-03-02T04:31:19.243Z,-0.39
2023-03-02T04:34:07.479Z,-0.38
2023-03-02T04:36:56.749Z,-0.27
2023-03-02T04:39:44.946Z,-0.15
2023-03-02T04:42:33.130Z,0.06
2023-03-02T04:45:19.880Z,-0.04
2023-03-02T04:48:07.607Z,0.08
2023-03-02T04:50:54.736Z,0.04
2023-03-02T04:53:41.301Z,0.21
2023-03-02T04:56:28.564Z,0.18
2023-03-02T04:59:16.829Z,0.20
2023-03-02T05:02:03.860Z,0.16
2023-03-02T05:04:50.658Z,0.32
2023-03-02T05:07:37.267Z,0.41
2023-03-02T05:10:24.716Z,0.38
2023-03-02T05:13:11.448Z,0.42
2023-03-02T05:15:59.577Z,0.43
2023-03-02T05:18:46.649Z,0.47
2023-03-02T05:21:33.248Z,0.29
2023-03-02T05:24:20.163Z,0.26
2023-03-02T05:27:06.672Z,0.24
2023-03-02T05:29:53.485Z,0.20
2023-03-02T05:32:41.644Z,0.25
2023-03-02T05:35:28.263Z,0.24
2023-03-02T05:38:15.738Z,0.02
2023-03-02T05:41:02.486Z,0.21
2023-03-02T05:43:49.345Z,0.15
2023-03-02T05:46:36.741Z,0.21
2023-03-02T05:49:24.691Z,0.10
2023-03-02T05:52:11.406Z,0.04
2023-03-02T05:54:59.469Z,0.20
2023-03-02T05:57:49.384Z,0.31
2023-03-02T06:00:35.803Z,0.26
2023-03-02T06:03:22.707Z,0.40
2023-03-02T06:06:14.459Z,0.45
2023-03-02T06:09:01.194Z,0.32
2023-03-02T06:11:48.224Z,0.38
2023-03-02T06:14:35.952Z,0.36
2023-03-02T06:17:22.862Z,0.41
2023-03-02T06:20:11.631Z,0.52
2023-03-02T06:22:59.822Z,0.55
2023-03-02T06:25:48.960Z,0.49
2023-03-02T06:28:49.818Z,0.37
2023-03-02T06:31:38.697Z,0.44
2023-03-02T06:34:25.311Z,0.41
2023-03-02T06:37:12.085Z,0.58
2023-03-02T06:40:00.462Z,0.57
2023-03-02T06:42:47.059Z,0.79
2023-03-02T06:45:34.811Z,0.88
2023-03-02T06:48:21.508Z,0.88
2023-03-02T06:51:08.502Z,0.96
2023-03-02T06:53:55.328Z,0.91
2023-03-02T06:56:43.623Z,1.05
2023-03-02T06:59:30.541Z,1.05
2023-03-02T07:02:17.468Z,0.92
2023-03-02T07:05:04.499Z,0.61
2023-03-02T07:07:51.244Z,0.42
2023-03-02T07:10:38.318Z,0.80
2023-03-02T07:13:26.397Z,0.83
2023-03-02T07:16:15.299Z,0.98
2023-03-02T07:19:02.123Z,0.72
2023-03-02T07:21:48.975Z,0.84
2023-03-02T07:24:35.746Z,0.62
2023-03-02T07:27:22.749Z,0.93
2023-03-02T07:30:14.945Z,1.10
2023-03-02T07:33:01.695Z,1.16
2023-03-02T07:35:48.347Z,1.15
2023-03-02T07:38:35.135Z,1.06
2023-03-02T07:41:22.894Z,1.12
2023-03-02T07:44:09.331Z,1.31
2023-03-02T07:46:58.781Z,1.48
2023-03-02T07:49:45.279Z,1.44
2023-03-02T07:52:32.199Z,1.34
2023-03-02T07:55:19.041Z,1.14
2023-03-02T07:58:05.796Z,1.36
2023-03-02T08:00:52.664Z,1.59
2023-03-02T08:03:40.785Z,1.63
2023-03-02T08:06:27.560Z,1.68
2023-03-02T08:09:16.868Z,1.76
2023-03-02T08:12:03.801Z,1.85
2023-03-02T08:14:50.691Z,2.03
2023-03-02T08:17:37.652Z,2.03
2023-03-02T08:20:26.568Z,1.91
2023-03-02T08:23:13.306Z,1.76
2023-03-02T08:26:00.168Z,1.78
2023-03-02T08:28:47.705Z,1.77
2023-03-02T08:31:35.151Z,1.85
2023-03-02T08:34:22.360Z,1.96
2023-03-02T08:37:10.677Z,1.40
2023-03-02T08:39:58.784Z,1.82
2023-03-02T08:42:50.155Z,1.79
2023-03-02T08:45:37.497Z,2.10
2023-03-02T08:48:25.289Z,2.03
2023-03-02T08:51:14.862Z,2.28
2023-03-02T08:54:02.870Z,2.39
2023-03-02T08:56:50.251Z,2.56
2023-03-02T08:59:56.186Z,2.49
2023-03-02T09:02:43.523Z,2.59
2023-03-02T09:05:30.365Z,2.72
2023-03-02T09:08:17.120Z,2.76
2023-03-02T09:11:05.672Z,2.79
2023-03-02T09:13:53.147Z,2.78
2023-03-02T09:16:40.284Z,2.75
2023-03-02T09:19:26.817Z,2.62
2023-03-02T09:22:13.760Z,2.63
2023-03-02T09:25:00.244Z,2.52
2023-03-02T09:27:48.793Z,2.44
2023-03-02T09:30:35.604Z,1.97
2023-03-02T09:33:22.944Z,1.81
2023-03-02T09:36:12.663Z,2.26
2023-03-02T09:38:59.185Z,2.49
2023-03-02T09:42:24.066Z,2.77
2023-03-02T09:45:34.027Z,2.46
2023-03-02T09:48:29.883Z,2.97
2023-03-02T09:51:26.876Z,3.18
2023-03-02T09:54:16.115Z,3.14
2023-03-02T09:57:04.178Z,3.12
2023-03-02T09:59:57.244Z,2.90
2023-03-02T10:02:49.967Z,2.84
2023-03-02T10:05:40.903Z,3.24
2023-03-02T10:08:30.793Z,3.28
2023-03-02T10:11:22.604Z,3.18
2023-03-02T10:14:16.577Z,3.43
2023-03-02T10:17:18.785Z,3.64
2023-03-02T10:20:14.003Z,3.59
2023-03-02T10:23:11.030Z,3.29
2023-03-02T10:26:06.445Z,3.53
2023-03-02T10:29:01.807Z,3.43
2023-03-02T10:31:53.612Z,3.38
2023-03-02T10:34:40.039Z,3.42
2023-03-02T10:37:34.728Z,3.54
2023-03-02T10:40:50.076Z,3.62
2023-03-02T10:43:47.837Z,3.50
2023-03-02T10:46:42.908Z,3.80
2023-03-02T10:49:31.326Z,3.74
2023-03-02T10:52:21.060Z,3.84
2023-03-02T10:55:16.408Z,4.16
2023-03-02T10:58:06.871Z,4.07
2023-03-02T11:00:58.202Z,4.15
2023-03-02T11:03:56.173Z,4.11
2023-03-02T11:06:42.896Z,3.78
2023-03-02T11:09:29.831Z,3.92
2023-03-02T11:12:19.235Z,3.82
2023-03-02T11:15:22.596Z,3.51
2023-03-02T11:18:15.744Z,3.76
2023-03-02T11:21:06.179Z,3.89
2023-03-02T11:24:01.586Z,4.16
2023-03-02T11:26:51.744Z,4.39
2023-03-02T11:29:45.524Z,4.44
2023-03-02T11:32:38.129Z,4.23
2023-03-02T11:35:32.398Z,4.18
2023-03-02T11:38:25.743Z,4.48
2023-03-02T11:41:27.313Z,4.54
2023-03-02T11:44:17.663Z,4.44
2023-03-02T11:47:05.760Z,4.50
2023-03-02T11:49:56.430Z,4.40
2023-03-02T11:52:47.556Z,4.31
2023-03-02T11:55:41.750Z,4.38
2023-03-02T11:58:30.898Z,4.35
2023-03-02T12:01:22.303Z,4.40
2023-03-02T12:04:26.380Z,4.44
2023-03-02T12:07:20.807Z,4.20
2023-03-02T12:10:24.163Z,4.26
2023-03-02T12:13:20.154Z,4.48
2023-03-02T12:16:21.106Z,4.24
2023-03-02T12:19:27.291Z,4.34
2023-03-02T12:22:15.411Z,4.47
2023-03-02T12:25:07.567Z,4.30
2023-03-02T12:27:55.562Z,4.53
2023-03-02T12:30:42.132Z,4.80
2023-03-02T12:33:28.934Z,4.57
2023-03-02T12:36:21.340Z,4.71
2023-03-02T12:39:21.363Z,4.39
2023-03-02T12:42:35.128Z,4.29
2023-03-02T12:45:34.786Z,4.32
2023-03-02T12:48:29.302Z,4.39
2023-03-02T12:51:22.203Z,4.44
2023-03-02T12:54:14.967Z,4.56
2023-03-02T12:57:08.911Z,4.27
2023-03-02T12:59:58.197Z,4.34
2023-03-02T13:02:48.261Z,4.50
2023-03-02T13:05:37.027Z,4.31
2023-03-02T13:08:28.851Z,4.40
2023-03-02T13:11:23.019Z,4.43
2023-03-02T13:14:21.019Z,4.55
2023-03-02T13:17:07.911Z,4.40
2023-03-02T13:19:55.245Z,4.42
2023-03-02T13:22:42.402Z,4.52
2023-03-02T13:25:32.333Z,4.27
2023-03-02T13:28:30.033Z,4.39
2023-03-02T13:31:22.359Z,4.45
2023-03-02T13:34:22.456Z,4.28
2023-03-02T13:37:21.504Z,3.97
2023-03-02T13:40:25.170Z,4.24
2023-03-02T13:43:24.928Z,4.02
2023-03-02T13:46:30.421Z,4.27
2023-03-02T13:49:27.926Z,4.05
2023-03-02T13:52:22.323Z,4.22
2023-03-02T13:55:15.149Z,4.39
2023-03-02T13:58:03.594Z,4.21
2023-03-02T14:00:52.668Z,4.06
2023-03-02T14:03:39.816Z,4.11
2023-03-02T14:06:26.256Z,4.20
2023-03-02T14:09:13.094Z,4.00
2023-03-02T14:11:59.995Z,4.03
2023-03-02T14:14:46.780Z,4.15
2023-03-02T14:17:36.175Z,4.19
2023-03-02T14:20:22.771Z,4.31
2023-03-02T14:23:09.988Z,4.35
2023-03-02T14:25:57.650Z,4.37
2023-03-02T14:28:44.880Z,4.28
2023-03-02T14:31:33.095Z,4.43
2023-03-02T14:34:21.777Z,4.48
2023-03-02T14:37:13.671Z,4.57
2023-03-02T14:40:00.434Z,4.47
2023-03-02T14:42:48.543Z,4.46
2023-03-02T14:45:35.315Z,4.22
2023-03-02T14:48:22.165Z,4.42
2023-03-02T14:51:20.091Z,4.35
2023-03-02T14:54:09.876Z,4.15
2023-03-02T14:56:56.481Z,4.00
2023-03-02T14:59:43.254Z,4.00
2023-03-02T15:02:30.199Z,3.96
2023-03-02T15:05:16.954Z,3.83
2023-03-02T15:08:05.496Z,3.86
2023-03-02T15:10:52.374Z,3.80
2023-03-02T15:13:39.188Z,3.77
2023-03-02T15:16:30.530Z,3.99
2023-03-02T15:19:17.074Z,4.05
2023-03-02T15:22:04.915Z,4.00
2023-03-02T15:24:53.061Z,4.13
2023-03-02T15:27:39.761Z,4.07
2023-03-02T15:30:30.564Z,3.95
2023-03-02T15:33:16.872Z,3.89
2023-03-02T15:36:06.340Z,3.57
2023-03-02T15:38:53.660Z,3.63
2023-03-02T15:41:42.182Z,3.56
2023-03-02T15:44:29.776Z,3.59
2023-03-02T15:47:16.725Z,3.47
2023-03-02T15:50:03.489Z,3.34
2023-03-02T15:52:51.216Z,3.37
2023-03-02T15:55:41.710Z,3.47
2023-03-02T15:58:29.899Z,3.40
2023-03-02T16:01:17.785Z,3.52
2023-03-02T16:04:04.598Z,3.57
2023-03-02T16:06:51.129Z,3.59
2023-03-02T16:09:37.842Z,3.32
2023-03-02T16:12:25.398Z,3.38
2023-03-02T16:15:13.447Z,3.47
2023-03-02T16:18:00.047Z,3.40
2023-03-02T16:20:46.839Z,3.49
2023-03-02T16:23:33.779Z,3.44
2023-03-02T16:26:22.579Z,3.66
2023-03-02T16:29:09.408Z,3.36
2023-03-02T16:31:57.528Z,3.26
2023-03-02T16:34:44.401Z,3.33
2023-03-02T16:37:31.242Z,3.37
2023-03-02T16:40:18.031Z,3.41
2023-03-02T16:43:06.212Z,3.34
2023-03-02T16:45:53.379Z,3.46
2023-03-02T16:48:41.433Z,3.67
2023-03-02T16:51:27.796Z,3.54
2023-03-02T16:54:17.334Z,3.32
2023-03-02T16:57:04.148Z,3.25
2023-03-02T16:59:50.940Z,3.35
2023-03-02T17:02:37.938Z,3.29
2023-03-02T17:05:25.920Z,3.38
2023-03-02T17:08:14.030Z,3.13
2023-03-02T17:11:00.500Z,3.49
2023-03-02T17:13:47.368Z,3.27
2023-03-02T17:16:34.136Z,3.21
2023-03-02T17:19:20.893Z,3.15
2023-03-02T17:22:09.302Z,3.21
2023-03-02T17:24:55.921Z,3.16
2023-03-02T17:27:42.588Z,3.13
2023-03-02T17:30:29.474Z,3.17
2023-03-02T17:33:16.868Z,3.24
2023-03-02T17:36:07.471Z,3.31
2023-03-02T17:38:55.610Z,3.13
2023-03-02T17:41:42.466Z,3.11
2023-03-02T17:44:29.389Z,2.84
2023-03-02T17:47:16.604Z,2.68
2023-03-02T17:50:05.057Z,2.94
2023-03-02T17:52:52.375Z,2.80
2023-03-02T17:55:40.474Z,2.85
2023-03-02T17:58:35.976Z,2.92
2023-03-02T18:01:31.064Z,3.18
2023-03-02T18:04:18.225Z,3.04
2023-03-02T18:07:04.904Z,3.12
2023-03-02T18:09:53.334Z,3.18
2023-03-02T18:12:42.030Z,3.33
2023-03-02T18:15:29.970Z,3.20
2023-03-02T18:18:16.802Z,3.23
2023-03-02T18:21:03.944Z,3.07
2023-03-02T18:23:50.852Z,3.09
2023-03-02T18:26:38.104Z,3.09
2023-03-02T18:29:26.874Z,3.21
2023-03-02T18:32:14.176Z,3.14
2023-03-02T18:35:01.068Z,3.32
2023-03-02T18:37:47.701Z,3.22
2023-03-02T18:40:35.030Z,3.30
2023-03-02T18:43:21.722Z,3.38
2023-03-02T18:46:19.032Z,3.41
2023-03-02T18:49:06.031Z,3.46
2023-03-02T18:51:53.055Z,3.43
2023-03-02T18:54:39.475Z,3.04
2023-03-02T18:57:26.816Z,2.90
2023-03-02T19:00:18.226Z,3.04
2023-03-02T19:03:06.457Z,2.91
2023-03-02T19:05:57.587Z,3.00
2023-03-02T19:08:44.675Z,2.99
2023-03-02T19:11:33.581Z,3.36
2023-03-02T19:14:21.975Z,3.24
2023-03-02T19:17:10.517Z,3.29
2023-03-02T19:20:03.456Z,3.41
2023-03-02T19:22:51.800Z,3.41
2023-03-02T19:26:02.376Z,3.38
2023-03-02T19:28:50.636Z,3.33
2023-03-02T19:31:40.617Z,3.16
2023-03-02T19:34:27.781Z,3.19
2023-03-02T19:37:17.630Z,3.20
2023-03-02T19:40:07.001Z,3.21
2023-03-02T19:42:56.316Z,3.26
2023-03-02T19:45:44.848Z,3.29
2023-03-02T19:48:34.467Z,3.10
2023-03-02T19:51:22.701Z,3.05
2023-03-02T19:54:12.062Z,3.11
2023-03-02T19:57:00.304Z,2.93
2023-03-02T19:59:50.045Z,3.00
2023-03-02T20:02:41.267Z,2.93
2023-03-02T20:05:31.157Z,3.17
2023-03-02T20:08:21.633Z,3.10
2023-03-02T20:11:09.828Z,2.99
2023-03-02T20:13:57.434Z,3.04
2023-03-02T20:16:43.966Z,2.96
2023-03-02T20:19:30.417Z,2.99
2023-03-02T20:22:17.921Z,2.94
2023-03-02T20:25:04.913Z,2.86
2023-03-02T20:27:53.135Z,3.00
2023-03-02T20:30:42.003Z,3.06
2023-03-02T20:33:32.770Z,3.05
2023-03-02T20:36:25.208Z,2.93
2023-03-02T20:39:17.579Z,3.09
2023-03-02T20:42:06.036Z,2.91
2023-03-02T20:44:56.424Z,3.12
2023-03-02T20:47:43.131Z,2.96
2023-03-02T20:50:32.244Z,3.19
2023-03-02T20:53:19.169Z,3.16
2023-03-02T20:56:06.494Z,3.01
2023-03-02T20:58:53.060Z,2.95
2023-03-02T21:01:41.089Z,2.97
2023-03-02T21:04:28.400Z,2.96
2023-03-02T21:07:15.732Z,2.97
2023-03-02T21:10:02.953Z,3.14
2023-03-02T21:12:50.935Z,2.80
2023-03-02T21:15:39.100Z,2.88
2023-03-02T21:18:27.553Z,2.89
2023-03-02T21:21:15.112Z,2.99
2023-03-02T21:24:03.727Z,2.91
2023-03-02T21:26:53.102Z,2.90
2023-03-02T21:29:40.344Z,3.27
2023-03-02T21:32:26.768Z,3.29
2023-03-02T21:35:15.329Z,3.11
2023-03-02T21:38:05.989Z,2.90
2023-03-02T21:40:52.898Z,3.13
2023-03-02T21:43:40.205Z,2.88
2023-03-02T21:46:27.198Z,3.11
2023-03-02T21:49:17.239Z,3.04
2023-03-02T21:52:08.003Z,3.09
2023-03-02T21:54:54.525Z,3.13
2023-03-02T21:57:44.179Z,3.15
2023-03-02T22:00:33.443Z,3.15
2023-03-02T22:03:20.369Z,3.01
2023-03-02T22:06:19.454Z,2.99
2023-03-02T22:09:07.730Z,2.97
2023-03-02T22:11:54.635Z,2.94
2023-03-02T22:14:41.196Z,2.86
2023-03-02T22:17:27.887Z,2.83
2023-03-02T22:20:19.903Z,2.84
2023-03-02T22:23:12.800Z,2.78
2023-03-02T22:26:14.241Z,2.88
2023-03-02T22:29:09.859Z,2.87
2023-03-02T22:31:58.744Z,2.99
2023-03-02T22:34:46.478Z,2.83
2023-03-02T22:37:35.517Z,3.02
2023-03-02T22:40:30.265Z,3.13
2023-03-02T22:43:26.064Z,3.12
2023-03-02T22:46:15.965Z,3.10
2023-03-02T22:49:02.974Z,2.96
2023-03-02T22:51:49.363Z,3.20
2023-03-02T22:54:38.956Z,3.21
2023-03-02T22:57:30.956Z,3.07
2023-03-02T23:00:36.024Z,3.07
2023-03-02T23:03:24.455Z,3.22
2023-03-02T23:06:29.546Z,2.97
2023-03-02T23:09:18.593Z,2.90
2023-03-02T23:12:16.486Z,2.84
2023-03-02T23:15:18.316Z,3.07
2023-03-02T23:18:18.169Z,3.24
2023-03-02T23:21:13.745Z,3.45
2023-03-02T23:24:01.482Z,3.18
2023-03-02T23:26:47.977Z,3.04
2023-03-02T23:29:35.160Z,3.05
2023-03-02T23:32:21.823Z,3.11
2023-03-02T23:35:10.671Z,3.30
2023-03-02T23:37:58.150Z,3.29
2023-03-02T23:40:44.702Z,3.29
2023-03-02T23:43:31.409Z,3.09
2023-03-02T23:46:18.157Z,3.26
2023-03-02T23:49:04.932Z,3.30
2023-03-02T23:51:53.236Z,3.02
2023-03-02T23:54:39.776Z,3.02
2023-03-02T23:57:27.070Z,3.13
